sensor_id;sensor_type;location;lat;lon;timestamp;P1;durP1;ratioP1;P2;durP2;ratioP2
20322;SDS011;10319;52.206;20.996;2023-03-31T00:01:34;19.13;;;7.57;;
20322;SDS011;10319;52.206;20.996;2023-03-31T00:03:59;20.70;;;7.80;;
20322;SDS011;10319;52.206;20.996;2023-03-31T00:06:32;19.30;;;8.13;;
20322;SDS011;10319;52.206;20.996;2023-03-31T00:09:02;20.73;;;8.17;;
20322;SDS011;10319;52.206;20.996;2023-03-31T00:11:27;21.77;;;8.20;;
20322;SDS011;10319;52.206;20.996;2023-03-31T00:13:53;17.97;;;7.70;;
20322;SDS011;10319;52.206;20.996;2023-03-31T00:16:19;17.63;;;6.83;;
20322;SDS011;10319;52.206;20.996;2023-03-31T00:18:44;18.17;;;7.97;;
20322;SDS011;10319;52.206;20.996;2023-03-31T00:21:14;19.17;;;7.23;;
20322;SDS011;10319;52.206;20.996;2023-03-31T00:23:52;19.43;;;7.63;;
20322;SDS011;10319;52.206;20.996;2023-03-31T00:26:17;18.10;;;7.33;;
20322;SDS011;10319;52.206;20.996;2023-03-31T00:28:42;16.93;;;6.60;;
20322;SDS011;10319;52.206;20.996;2023-03-31T00:31:08;17.57;;;7.07;;
20322;SDS011;10319;52.206;20.996;2023-03-31T00:33:33;17.37;;;7.07;;
20322;SDS011;10319;52.206;20.996;2023-03-31T00:35:58;18.73;;;6.50;;
20322;SDS011;10319;52.206;20.996;2023-03-31T00:38:26;18.07;;;7.00;;
20322;SDS011;10319;52.206;20.996;2023-03-31T00:40:53;17.87;;;6.30;;
20322;SDS011;10319;52.206;20.996;2023-03-31T00:46:05;17.07;;;6.67;;
20322;SDS011;10319;52.206;20.996;2023-03-31T00:48:31;20.67;;;6.90;;
20322;SDS011;10319;52.206;20.996;2023-03-31T00:50:57;17.73;;;6.50;;
20322;SDS011;10319;52.206;20.996;2023-03-31T00:53:25;18.57;;;6.87;;
20322;SDS011;10319;52.206;20.996;2023-03-31T00:55:53;17.47;;;6.23;;
20322;SDS011;10319;52.206;20.996;2023-03-31T00:58:20;17.47;;;6.57;;
20322;SDS011;10319;52.206;20.996;2023-03-31T01:00:46;16.43;;;6.47;;
20322;SDS011;10319;52.206;20.996;2023-03-31T01:03:16;17.90;;;6.47;;
20322;SDS011;10319;52.206;20.996;2023-03-31T01:05:46;15.03;;;5.77;;
20322;SDS011;10319;52.206;20.996;2023-03-31T01:08:14;18.67;;;6.60;;
20322;SDS011;10319;52.206;20.996;2023-03-31T01:10:40;16.13;;;5.40;;
20322;SDS011;10319;52.206;20.996;2023-03-31T01:13:11;15.97;;;5.60;;
20322;SDS011;10319;52.206;20.996;2023-03-31T01:15:37;20.63;;;6.37;;
20322;SDS011;10319;52.206;20.996;2023-03-31T01:18:03;16.63;;;5.70;;
20322;SDS011;10319;52.206;20.996;2023-03-31T01:20:37;15.83;;;5.67;;
20322;SDS011;10319;52.206;20.996;2023-03-31T01:25:54;18.43;;;6.37;;
20322;SDS011;10319;52.206;20.996;2023-03-31T01:33:43;16.13;;;5.93;;
20322;SDS011;10319;52.206;20.996;2023-03-31T01:52:03;16.63;;;5.93;;
20322;SDS011;10319;52.206;20.996;2023-03-31T01:54:42;16.33;;;5.60;;
20322;SDS011;10319;52.206;20.996;2023-03-31T01:57:11;16.13;;;5.80;;
20322;SDS011;10319;52.206;20.996;2023-03-31T01:59:41;15.97;;;5.77;;
20322;SDS011;10319;52.206;20.996;2023-03-31T02:02:09;17.67;;;6.10;;
20322;SDS011;10319;52.206;20.996;2023-03-31T02:07:03;14.57;;;5.40;;
20322;SDS011;10319;52.206;20.996;2023-03-31T02:09:31;17.50;;;6.27;;
20322;SDS011;10319;52.206;20.996;2023-03-31T02:11:57;15.40;;;5.60;;
20322;SDS011;10319;52.206;20.996;2023-03-31T02:14:25;15.10;;;6.03;;
20322;SDS011;10319;52.206;20.996;2023-03-31T02:16:52;16.37;;;5.70;;
20322;SDS011;10319;52.206;20.996;2023-03-31T02:19:22;15.10;;;5.60;;
20322;SDS011;10319;52.206;20.996;2023-03-31T02:21:49;17.57;;;6.20;;
20322;SDS011;10319;52.206;20.996;2023-03-31T02:24:15;15.43;;;5.60;;
20322;SDS011;10319;52.206;20.996;2023-03-31T02:26:47;18.23;;;6.20;;
20322;SDS011;10319;52.206;20.996;2023-03-31T02:29:16;15.20;;;5.57;;
20322;SDS011;10319;52.206;20.996;2023-03-31T02:32:02;13.90;;;5.67;;
20322;SDS011;10319;52.206;20.996;2023-03-31T02:34:29;13.70;;;5.30;;
20322;SDS011;10319;52.206;20.996;2023-03-31T02:36:54;15.33;;;5.77;;
20322;SDS011;10319;52.206;20.996;2023-03-31T02:39:20;15.10;;;5.83;;
20322;SDS011;10319;52.206;20.996;2023-03-31T02:41:48;15.50;;;5.70;;
20322;SDS011;10319;52.206;20.996;2023-03-31T02:44:13;16.73;;;5.90;;
20322;SDS011;10319;52.206;20.996;2023-03-31T02:46:39;15.00;;;5.40;;
20322;SDS011;10319;52.206;20.996;2023-03-31T02:49:05;15.93;;;6.03;;
20322;SDS011;10319;52.206;20.996;2023-03-31T02:57:06;14.50;;;5.43;;
20322;SDS011;10319;52.206;20.996;2023-03-31T03:02:09;14.70;;;5.40;;
20322;SDS011;10319;52.206;20.996;2023-03-31T03:04:41;17.10;;;6.17;;
20322;SDS011;10319;52.206;20.996;2023-03-31T03:14:40;13.40;;;5.10;;
20322;SDS011;10319;52.206;20.996;2023-03-31T03:17:12;15.20;;;5.50;;
20322;SDS011;10319;52.206;20.996;2023-03-31T03:19:40;16.30;;;6.00;;
20322;SDS011;10319;52.206;20.996;2023-03-31T03:22:06;14.83;;;5.33;;
20322;SDS011;10319;52.206;20.996;2023-03-31T03:24:31;16.83;;;6.33;;
20322;SDS011;10319;52.206;20.996;2023-03-31T03:26:58;15.80;;;6.00;;
20322;SDS011;10319;52.206;20.996;2023-03-31T03:29:23;13.27;;;5.93;;
20322;SDS011;10319;52.206;20.996;2023-03-31T03:31:48;16.80;;;6.17;;
20322;SDS011;10319;52.206;20.996;2023-03-31T03:34:14;16.03;;;6.13;;
20322;SDS011;10319;52.206;20.996;2023-03-31T03:36:40;15.73;;;6.33;;
20322;SDS011;10319;52.206;20.996;2023-03-31T03:39:06;14.97;;;5.83;;
20322;SDS011;10319;52.206;20.996;2023-03-31T03:41:32;15.37;;;5.57;;
20322;SDS011;10319;52.206;20.996;2023-03-31T03:43:57;15.20;;;6.00;;
20322;SDS011;10319;52.206;20.996;2023-03-31T03:46:22;16.57;;;6.40;;
20322;SDS011;10319;52.206;20.996;2023-03-31T03:48:48;18.90;;;6.20;;
20322;SDS011;10319;52.206;20.996;2023-03-31T03:51:13;15.27;;;5.90;;
20322;SDS011;10319;52.206;20.996;2023-03-31T03:53:38;14.10;;;5.63;;
20322;SDS011;10319;52.206;20.996;2023-03-31T03:56:03;16.73;;;6.13;;
20322;SDS011;10319;52.206;20.996;2023-03-31T03:58:29;19.13;;;6.53;;
20322;SDS011;10319;52.206;20.996;2023-03-31T04:00:54;15.67;;;6.37;;
20322;SDS011;10319;52.206;20.996;2023-03-31T04:03:21;17.27;;;6.43;;
20322;SDS011;10319;52.206;20.996;2023-03-31T04:05:46;15.83;;;6.23;;
20322;SDS011;10319;52.206;20.996;2023-03-31T04:08:13;18.10;;;6.40;;
20322;SDS011;10319;52.206;20.996;2023-03-31T04:10:42;15.47;;;6.07;;
20322;SDS011;10319;52.206;20.996;2023-03-31T04:13:08;15.53;;;6.60;;
20322;SDS011;10319;52.206;20.996;2023-03-31T04:15:33;16.30;;;6.77;;
20322;SDS011;10319;52.206;20.996;2023-03-31T04:17:58;16.93;;;6.77;;
20322;SDS011;10319;52.206;20.996;2023-03-31T04:20:23;16.83;;;6.73;;
20322;SDS011;10319;52.206;20.996;2023-03-31T04:22:54;16.67;;;7.03;;
20322;SDS011;10319;52.206;20.996;2023-03-31T04:25:19;16.17;;;6.53;;
20322;SDS011;10319;52.206;20.996;2023-03-31T04:27:47;16.57;;;6.50;;
20322;SDS011;10319;52.206;20.996;2023-03-31T04:30:19;17.60;;;6.80;;
20322;SDS011;10319;52.206;20.996;2023-03-31T04:32:51;18.07;;;6.97;;
20322;SDS011;10319;52.206;20.996;2023-03-31T04:35:17;16.60;;;6.70;;
20322;SDS011;10319;52.206;20.996;2023-03-31T04:37:44;16.40;;;6.80;;
20322;SDS011;10319;52.206;20.996;2023-03-31T04:40:10;17.17;;;7.17;;
20322;SDS011;10319;52.206;20.996;2023-03-31T04:42:35;17.17;;;7.10;;
20322;SDS011;10319;52.206;20.996;2023-03-31T04:45:01;18.47;;;6.90;;
20322;SDS011;10319;52.206;20.996;2023-03-31T04:47:26;18.70;;;7.50;;
20322;SDS011;10319;52.206;20.996;2023-03-31T04:49:51;17.03;;;6.80;;
20322;SDS011;10319;52.206;20.996;2023-03-31T04:52:23;19.27;;;7.00;;
20322;SDS011;10319;52.206;20.996;2023-03-31T04:54:48;17.67;;;6.70;;
20322;SDS011;10319;52.206;20.996;2023-03-31T04:57:13;17.57;;;7.03;;
20322;SDS011;10319;52.206;20.996;2023-03-31T04:59:38;18.80;;;7.17;;
20322;SDS011;10319;52.206;20.996;2023-03-31T05:02:03;16.40;;;7.17;;
20322;SDS011;10319;52.206;20.996;2023-03-31T05:04:29;17.33;;;7.70;;
20322;SDS011;10319;52.206;20.996;2023-03-31T05:06:54;19.10;;;7.20;;
20322;SDS011;10319;52.206;20.996;2023-03-31T05:09:20;16.50;;;6.90;;
20322;SDS011;10319;52.206;20.996;2023-03-31T05:11:46;17.93;;;7.30;;
20322;SDS011;10319;52.206;20.996;2023-03-31T05:14:11;19.80;;;7.73;;
20322;SDS011;10319;52.206;20.996;2023-03-31T05:16:36;18.83;;;7.30;;
20322;SDS011;10319;52.206;20.996;2023-03-31T05:19:01;19.77;;;8.03;;
20322;SDS011;10319;52.206;20.996;2023-03-31T05:21:27;20.17;;;8.40;;
20322;SDS011;10319;52.206;20.996;2023-03-31T05:23:54;19.23;;;8.27;;
20322;SDS011;10319;52.206;20.996;2023-03-31T05:26:19;20.13;;;8.60;;
20322;SDS011;10319;52.206;20.996;2023-03-31T05:28:46;19.20;;;8.50;;
20322;SDS011;10319;52.206;20.996;2023-03-31T05:31:12;19.03;;;8.80;;
20322;SDS011;10319;52.206;20.996;2023-03-31T05:33:38;20.23;;;9.07;;
20322;SDS011;10319;52.206;20.996;2023-03-31T05:36:06;19.00;;;8.20;;
20322;SDS011;10319;52.206;20.996;2023-03-31T05:38:31;20.47;;;8.90;;
20322;SDS011;10319;52.206;20.996;2023-03-31T05:40:58;19.73;;;9.03;;
20322;SDS011;10319;52.206;20.996;2023-03-31T05:43:23;18.57;;;8.13;;
20322;SDS011;10319;52.206;20.996;2023-03-31T05:45:49;18.47;;;8.87;;
20322;SDS011;10319;52.206;20.996;2023-03-31T05:48:14;20.27;;;9.63;;
20322;SDS011;10319;52.206;20.996;2023-03-31T05:50:39;17.80;;;8.63;;
20322;SDS011;10319;52.206;20.996;2023-03-31T05:53:06;17.80;;;7.83;;
20322;SDS011;10319;52.206;20.996;2023-03-31T05:55:31;18.83;;;8.20;;
20322;SDS011;10319;52.206;20.996;2023-03-31T05:57:59;19.10;;;7.83;;
20322;SDS011;10319;52.206;20.996;2023-03-31T06:00:25;16.80;;;7.43;;
20322;SDS011;10319;52.206;20.996;2023-03-31T06:02:50;17.90;;;7.80;;
20322;SDS011;10319;52.206;20.996;2023-03-31T06:05:15;18.50;;;7.70;;
20322;SDS011;10319;52.206;20.996;2023-03-31T06:07:41;19.53;;;7.97;;
20322;SDS011;10319;52.206;20.996;2023-03-31T06:10:06;17.90;;;7.87;;
20322;SDS011;10319;52.206;20.996;2023-03-31T06:12:32;19.33;;;8.03;;
20322;SDS011;10319;52.206;20.996;2023-03-31T06:14:58;16.67;;;7.70;;
20322;SDS011;10319;52.206;20.996;2023-03-31T06:17:23;20.73;;;8.40;;
20322;SDS011;10319;52.206;20.996;2023-03-31T06:19:48;21.17;;;8.40;;
20322;SDS011;10319;52.206;20.996;2023-03-31T06:22:13;18.60;;;8.37;;
20322;SDS011;10319;52.206;20.996;2023-03-31T06:24:38;18.43;;;7.93;;
20322;SDS011;10319;52.206;20.996;2023-03-31T06:27:05;18.40;;;8.20;;
20322;SDS011;10319;52.206;20.996;2023-03-31T06:29:30;17.37;;;8.20;;
20322;SDS011;10319;52.206;20.996;2023-03-31T06:31:55;18.40;;;8.30;;
20322;SDS011;10319;52.206;20.996;2023-03-31T06:34:20;20.53;;;8.20;;
20322;SDS011;10319;52.206;20.996;2023-03-31T06:36:46;17.03;;;7.43;;
20322;SDS011;10319;52.206;20.996;2023-03-31T06:39:11;17.83;;;7.70;;
20322;SDS011;10319;52.206;20.996;2023-03-31T06:41:36;19.73;;;7.70;;
20322;SDS011;10319;52.206;20.996;2023-03-31T06:44:02;18.87;;;8.17;;
20322;SDS011;10319;52.206;20.996;2023-03-31T06:46:28;19.03;;;8.30;;
20322;SDS011;10319;52.206;20.996;2023-03-31T06:48:53;18.67;;;8.20;;
20322;SDS011;10319;52.206;20.996;2023-03-31T06:51:19;18.47;;;8.00;;
20322;SDS011;10319;52.206;20.996;2023-03-31T06:53:44;16.07;;;7.37;;
20322;SDS011;10319;52.206;20.996;2023-03-31T06:56:10;19.17;;;8.20;;
20322;SDS011;10319;52.206;20.996;2023-03-31T06:58:35;18.33;;;7.70;;
20322;SDS011;10319;52.206;20.996;2023-03-31T07:01:01;19.93;;;8.10;;
20322;SDS011;10319;52.206;20.996;2023-03-31T07:03:27;17.70;;;7.47;;
20322;SDS011;10319;52.206;20.996;2023-03-31T07:05:53;16.30;;;7.33;;
20322;SDS011;10319;52.206;20.996;2023-03-31T07:08:19;17.20;;;6.80;;
20322;SDS011;10319;52.206;20.996;2023-03-31T07:10:44;19.33;;;7.80;;
20322;SDS011;10319;52.206;20.996;2023-03-31T07:13:16;17.27;;;7.77;;
20322;SDS011;10319;52.206;20.996;2023-03-31T07:15:41;18.10;;;7.90;;
20322;SDS011;10319;52.206;20.996;2023-03-31T07:18:07;19.03;;;7.97;;
20322;SDS011;10319;52.206;20.996;2023-03-31T07:20:33;17.07;;;7.30;;
20322;SDS011;10319;52.206;20.996;2023-03-31T07:22:58;20.43;;;8.77;;
20322;SDS011;10319;52.206;20.996;2023-03-31T07:25:23;21.77;;;8.70;;
20322;SDS011;10319;52.206;20.996;2023-03-31T07:27:48;17.63;;;7.73;;
20322;SDS011;10319;52.206;20.996;2023-03-31T07:30:15;17.37;;;8.03;;
20322;SDS011;10319;52.206;20.996;2023-03-31T07:32:40;18.77;;;7.93;;
20322;SDS011;10319;52.206;20.996;2023-03-31T07:35:06;19.53;;;8.87;;
20322;SDS011;10319;52.206;20.996;2023-03-31T07:37:35;20.10;;;9.27;;
20322;SDS011;10319;52.206;20.996;2023-03-31T07:40:01;18.43;;;8.73;;
20322;SDS011;10319;52.206;20.996;2023-03-31T07:42:26;19.00;;;8.23;;
20322;SDS011;10319;52.206;20.996;2023-03-31T07:44:51;18.03;;;8.00;;
20322;SDS011;10319;52.206;20.996;2023-03-31T07:47:16;20.17;;;8.83;;
20322;SDS011;10319;52.206;20.996;2023-03-31T07:49:42;17.70;;;8.53;;
20322;SDS011;10319;52.206;20.996;2023-03-31T07:52:07;20.00;;;9.37;;
20322;SDS011;10319;52.206;20.996;2023-03-31T07:54:32;20.50;;;9.10;;
20322;SDS011;10319;52.206;20.996;2023-03-31T07:56:57;17.83;;;8.37;;
20322;SDS011;10319;52.206;20.996;2023-03-31T07:59:25;18.77;;;8.90;;
20322;SDS011;10319;52.206;20.996;2023-03-31T08:01:50;18.43;;;7.97;;
20322;SDS011;10319;52.206;20.996;2023-03-31T08:04:16;19.53;;;9.00;;
20322;SDS011;10319;52.206;20.996;2023-03-31T08:06:41;17.03;;;7.93;;
20322;SDS011;10319;52.206;20.996;2023-03-31T08:09:06;16.80;;;7.97;;
20322;SDS011;10319;52.206;20.996;2023-03-31T08:11:32;17.57;;;8.10;;
20322;SDS011;10319;52.206;20.996;2023-03-31T08:13:57;18.10;;;7.57;;
20322;SDS011;10319;52.206;20.996;2023-03-31T08:16:23;17.13;;;7.50;;
20322;SDS011;10319;52.206;20.996;2023-03-31T08:18:48;19.53;;;7.87;;
20322;SDS011;10319;52.206;20.996;2023-03-31T08:21:13;17.00;;;6.83;;
20322;SDS011;10319;52.206;20.996;2023-03-31T08:23:39;20.20;;;7.50;;
20322;SDS011;10319;52.206;20.996;2023-03-31T08:26:14;16.67;;;6.97;;
20322;SDS011;10319;52.206;20.996;2023-03-31T08:28:43;17.10;;;7.30;;
20322;SDS011;10319;52.206;20.996;2023-03-31T08:31:09;15.93;;;7.00;;
20322;SDS011;10319;52.206;20.996;2023-03-31T08:33:35;16.40;;;7.27;;
20322;SDS011;10319;52.206;20.996;2023-03-31T08:36:04;18.43;;;7.50;;
20322;SDS011;10319;52.206;20.996;2023-03-31T08:38:32;17.67;;;7.10;;
20322;SDS011;10319;52.206;20.996;2023-03-31T08:40:58;15.27;;;5.90;;
20322;SDS011;10319;52.206;20.996;2023-03-31T08:43:26;16.03;;;6.07;;
20322;SDS011;10319;52.206;20.996;2023-03-31T08:45:52;16.13;;;5.93;;
20322;SDS011;10319;52.206;20.996;2023-03-31T08:51:17;15.37;;;5.90;;
20322;SDS011;10319;52.206;20.996;2023-03-31T08:53:46;16.87;;;5.70;;
20322;SDS011;10319;52.206;20.996;2023-03-31T08:56:17;14.70;;;4.83;;
20322;SDS011;10319;52.206;20.996;2023-03-31T08:58:45;16.67;;;5.13;;
20322;SDS011;10319;52.206;20.996;2023-03-31T09:06:38;15.07;;;4.90;;
20322;SDS011;10319;52.206;20.996;2023-03-31T09:09:06;17.13;;;5.07;;
20322;SDS011;10319;52.206;20.996;2023-03-31T09:11:40;13.67;;;4.80;;
20322;SDS011;10319;52.206;20.996;2023-03-31T09:16:58;14.17;;;4.60;;
20322;SDS011;10319;52.206;20.996;2023-03-31T09:22:10;12.97;;;4.00;;
20322;SDS011;10319;52.206;20.996;2023-03-31T09:25:24;11.87;;;3.83;;
20322;SDS011;10319;52.206;20.996;2023-03-31T09:27:23;13.13;;;4.03;;
20322;SDS011;10319;52.206;20.996;2023-03-31T09:29:51;12.07;;;3.60;;
20322;SDS011;10319;52.206;20.996;2023-03-31T09:32:20;12.60;;;3.53;;
20322;SDS011;10319;52.206;20.996;2023-03-31T09:34:46;13.13;;;3.63;;
20322;SDS011;10319;52.206;20.996;2023-03-31T09:37:14;12.30;;;3.47;;
20322;SDS011;10319;52.206;20.996;2023-03-31T09:39:39;12.50;;;4.00;;
20322;SDS011;10319;52.206;20.996;2023-03-31T09:42:05;13.30;;;3.73;;
20322;SDS011;10319;52.206;20.996;2023-03-31T09:44:44;11.93;;;3.30;;
20322;SDS011;10319;52.206;20.996;2023-03-31T09:47:12;12.30;;;3.40;;
20322;SDS011;10319;52.206;20.996;2023-03-31T09:49:38;12.80;;;3.77;;
20322;SDS011;10319;52.206;20.996;2023-03-31T09:52:12;12.37;;;3.30;;
20322;SDS011;10319;52.206;20.996;2023-03-31T09:57:12;14.37;;;3.37;;
20322;SDS011;10319;52.206;20.996;2023-03-31T09:59:37;13.63;;;2.90;;
20322;SDS011;10319;52.206;20.996;2023-03-31T10:02:05;13.27;;;2.80;;
20322;SDS011;10319;52.206;20.996;2023-03-31T10:04:43;11.63;;;2.80;;
20322;SDS011;10319;52.206;20.996;2023-03-31T10:07:09;11.23;;;2.60;;
20322;SDS011;10319;52.206;20.996;2023-03-31T10:09:35;12.33;;;2.43;;
20322;SDS011;10319;52.206;20.996;2023-03-31T10:12:06;10.40;;;2.37;;
20322;SDS011;10319;52.206;20.996;2023-03-31T10:14:37;10.20;;;2.28;;
20322;SDS011;10319;52.206;20.996;2023-03-31T10:17:04;16.50;;;3.08;;
20322;SDS011;10319;52.206;20.996;2023-03-31T10:19:31;10.85;;;2.45;;
20322;SDS011;10319;52.206;20.996;2023-03-31T10:22:43;13.93;;;2.40;;
20322;SDS011;10319;52.206;20.996;2023-03-31T10:24:44;9.73;;;2.15;;
20322;SDS011;10319;52.206;20.996;2023-03-31T10:27:23;13.85;;;2.53;;
20322;SDS011;10319;52.206;20.996;2023-03-31T10:29:53;12.23;;;2.00;;
20322;SDS011;10319;52.206;20.996;2023-03-31T10:32:21;13.25;;;2.50;;
20322;SDS011;10319;52.206;20.996;2023-03-31T10:34:47;13.18;;;2.40;;
20322;SDS011;10319;52.206;20.996;2023-03-31T10:37:15;26.70;;;3.72;;
20322;SDS011;10319;52.206;20.996;2023-03-31T10:39:41;13.13;;;2.58;;
20322;SDS011;10319;52.206;20.996;2023-03-31T10:42:07;9.68;;;1.83;;
20322;SDS011;10319;52.206;20.996;2023-03-31T10:44:34;9.45;;;2.17;;
20322;SDS011;10319;52.206;20.996;2023-03-31T10:49:39;11.65;;;1.98;;
20322;SDS011;10319;52.206;20.996;2023-03-31T10:52:12;10.77;;;2.00;;
20322;SDS011;10319;52.206;20.996;2023-03-31T10:54:45;9.45;;;2.20;;
20322;SDS011;10319;52.206;20.996;2023-03-31T10:57:10;13.00;;;2.45;;
20322;SDS011;10319;52.206;20.996;2023-03-31T10:59:48;9.35;;;1.88;;
20322;SDS011;10319;52.206;20.996;2023-03-31T11:15:39;9.88;;;2.00;;
20322;SDS011;10319;52.206;20.996;2023-03-31T11:20:38;10.18;;;2.15;;
20322;SDS011;10319;52.206;20.996;2023-03-31T11:25:38;12.82;;;2.15;;
20322;SDS011;10319;52.206;20.996;2023-03-31T11:30:39;13.65;;;2.22;;
20322;SDS011;10319;52.206;20.996;2023-03-31T11:41:15;10.45;;;1.98;;
20322;SDS011;10319;52.206;20.996;2023-03-31T11:46:20;10.45;;;2.17;;
20322;SDS011;10319;52.206;20.996;2023-03-31T11:48:48;10.98;;;2.15;;
20322;SDS011;10319;52.206;20.996;2023-03-31T11:51:23;11.68;;;2.35;;
20322;SDS011;10319;52.206;20.996;2023-03-31T11:53:50;9.38;;;2.22;;
20322;SDS011;10319;52.206;20.996;2023-03-31T11:56:17;10.45;;;2.22;;
20322;SDS011;10319;52.206;20.996;2023-03-31T12:06:24;11.70;;;2.40;;
20322;SDS011;10319;52.206;20.996;2023-03-31T12:09:01;10.85;;;2.10;;
20322;SDS011;10319;52.206;20.996;2023-03-31T12:11:34;9.52;;;2.15;;
20322;SDS011;10319;52.206;20.996;2023-03-31T12:16:37;11.45;;;2.22;;
20322;SDS011;10319;52.206;20.996;2023-03-31T12:19:22;12.32;;;2.40;;
20322;SDS011;10319;52.206;20.996;2023-03-31T12:21:59;12.13;;;2.70;;
20322;SDS011;10319;52.206;20.996;2023-03-31T12:24:28;9.70;;;2.10;;
20322;SDS011;10319;52.206;20.996;2023-03-31T12:27:11;11.18;;;2.35;;
20322;SDS011;10319;52.206;20.996;2023-03-31T12:29:39;10.57;;;2.15;;
20322;SDS011;10319;52.206;20.996;2023-03-31T12:32:09;11.30;;;2.33;;
20322;SDS011;10319;52.206;20.996;2023-03-31T12:34:37;12.68;;;2.40;;
20322;SDS011;10319;52.206;20.996;2023-03-31T12:37:17;11.00;;;2.47;;
20322;SDS011;10319;52.206;20.996;2023-03-31T12:52:46;7.28;;;1.90;;
20322;SDS011;10319;52.206;20.996;2023-03-31T12:55:22;10.23;;;1.80;;
20322;SDS011;10319;52.206;20.996;2023-03-31T12:58:09;10.32;;;2.00;;
20322;SDS011;10319;52.206;20.996;2023-03-31T13:00:38;11.57;;;2.13;;
20322;SDS011;10319;52.206;20.996;2023-03-31T13:05:57;11.65;;;2.17;;
20322;SDS011;10319;52.206;20.996;2023-03-31T13:11:15;9.75;;;2.10;;
20322;SDS011;10319;52.206;20.996;2023-03-31T13:13:45;8.85;;;1.60;;
20322;SDS011;10319;52.206;20.996;2023-03-31T13:16:12;11.23;;;1.98;;
20322;SDS011;10319;52.206;20.996;2023-03-31T13:18:43;10.98;;;2.15;;
20322;SDS011;10319;52.206;20.996;2023-03-31T13:21:14;8.18;;;1.58;;
20322;SDS011;10319;52.206;20.996;2023-03-31T13:23:39;9.38;;;1.92;;
20322;SDS011;10319;52.206;20.996;2023-03-31T13:26:33;13.02;;;2.00;;
20322;SDS011;10319;52.206;20.996;2023-03-31T13:29:16;8.25;;;1.67;;
20322;SDS011;10319;52.206;20.996;2023-03-31T13:32:25;9.38;;;1.88;;
20322;SDS011;10319;52.206;20.996;2023-03-31T13:34:42;11.27;;;2.30;;
20322;SDS011;10319;52.206;20.996;2023-03-31T13:43:00;10.37;;;2.40;;
20322;SDS011;10319;52.206;20.996;2023-03-31T13:47:40;9.73;;;1.97;;
20322;SDS011;10319;52.206;20.996;2023-03-31T13:52:54;11.00;;;1.80;;
20322;SDS011;10319;52.206;20.996;2023-03-31T13:55:27;11.10;;;2.20;;
20322;SDS011;10319;52.206;20.996;2023-03-31T14:05:36;9.67;;;2.13;;
20322;SDS011;10319;52.206;20.996;2023-03-31T14:08:09;10.33;;;1.87;;
20322;SDS011;10319;52.206;20.996;2023-03-31T14:10:39;12.80;;;2.40;;
20322;SDS011;10319;52.206;20.996;2023-03-31T14:13:07;6.93;;;1.83;;
20322;SDS011;10319;52.206;20.996;2023-03-31T14:15:33;9.75;;;2.05;;
20322;SDS011;10319;52.206;20.996;2023-03-31T14:17:59;10.40;;;2.00;;
20322;SDS011;10319;52.206;20.996;2023-03-31T14:33:41;9.73;;;1.93;;
20322;SDS011;10319;52.206;20.996;2023-03-31T14:38:33;10.43;;;1.90;;
20322;SDS011;10319;52.206;20.996;2023-03-31T14:40:59;8.50;;;2.00;;
20322;SDS011;10319;52.206;20.996;2023-03-31T14:43:28;8.87;;;1.73;;
20322;SDS011;10319;52.206;20.996;2023-03-31T14:46:00;13.07;;;2.40;;
20322;SDS011;10319;52.206;20.996;2023-03-31T14:48:26;9.93;;;1.80;;
20322;SDS011;10319;52.206;20.996;2023-03-31T14:50:55;9.37;;;1.90;;
20322;SDS011;10319;52.206;20.996;2023-03-31T14:53:22;9.33;;;1.70;;
20322;SDS011;10319;52.206;20.996;2023-03-31T14:55:47;12.03;;;2.30;;
20322;SDS011;10319;52.206;20.996;2023-03-31T14:58:13;10.07;;;2.20;;
20322;SDS011;10319;52.206;20.996;2023-03-31T15:00:40;8.63;;;2.00;;
20322;SDS011;10319;52.206;20.996;2023-03-31T15:03:06;8.87;;;1.83;;
20322;SDS011;10319;52.206;20.996;2023-03-31T15:05:36;8.43;;;1.80;;
20322;SDS011;10319;52.206;20.996;2023-03-31T15:08:02;8.70;;;2.00;;
20322;SDS011;10319;52.206;20.996;2023-03-31T15:10:30;10.40;;;2.10;;
20322;SDS011;10319;52.206;20.996;2023-03-31T15:12:57;10.23;;;1.93;;
20322;SDS011;10319;52.206;20.996;2023-03-31T15:15:22;10.87;;;2.00;;
20322;SDS011;10319;52.206;20.996;2023-03-31T15:17:47;10.90;;;2.17;;
20322;SDS011;10319;52.206;20.996;2023-03-31T15:20:20;8.40;;;1.80;;
20322;SDS011;10319;52.206;20.996;2023-03-31T15:22:48;10.67;;;1.90;;
20322;SDS011;10319;52.206;20.996;2023-03-31T15:25:13;10.53;;;1.90;;
20322;SDS011;10319;52.206;20.996;2023-03-31T15:27:42;10.10;;;2.10;;
20322;SDS011;10319;52.206;20.996;2023-03-31T15:30:16;7.80;;;1.50;;
20322;SDS011;10319;52.206;20.996;2023-03-31T15:32:42;6.53;;;1.40;;
20322;SDS011;10319;52.206;20.996;2023-03-31T15:35:24;2.50;;;1.03;;
20322;SDS011;10319;52.206;20.996;2023-03-31T15:37:50;5.07;;;1.20;;
20322;SDS011;10319;52.206;20.996;2023-03-31T15:40:20;4.93;;;1.40;;
20322;SDS011;10319;52.206;20.996;2023-03-31T15:42:47;4.97;;;1.37;;
20322;SDS011;10319;52.206;20.996;2023-03-31T15:48:08;3.93;;;1.10;;
20322;SDS011;10319;52.206;20.996;2023-03-31T15:50:38;5.43;;;1.30;;
20322;SDS011;10319;52.206;20.996;2023-03-31T15:53:18;6.50;;;1.60;;
20322;SDS011;10319;52.206;20.996;2023-03-31T15:55:45;4.50;;;1.20;;
20322;SDS011;10319;52.206;20.996;2023-03-31T15:58:11;3.53;;;1.10;;
20322;SDS011;10319;52.206;20.996;2023-03-31T16:00:46;3.67;;;1.23;;
20322;SDS011;10319;52.206;20.996;2023-03-31T16:03:23;2.63;;;0.80;;
20322;SDS011;10319;52.206;20.996;2023-03-31T16:05:57;6.20;;;1.33;;
20322;SDS011;10319;52.206;20.996;2023-03-31T16:10:57;4.03;;;1.00;;
20322;SDS011;10319;52.206;20.996;2023-03-31T16:13:23;4.60;;;1.10;;
20322;SDS011;10319;52.206;20.996;2023-03-31T16:15:50;3.37;;;1.10;;
20322;SDS011;10319;52.206;20.996;2023-03-31T16:18:17;4.00;;;1.20;;
20322;SDS011;10319;52.206;20.996;2023-03-31T16:20:52;3.27;;;0.90;;
20322;SDS011;10319;52.206;20.996;2023-03-31T16:23:18;5.40;;;0.97;;
20322;SDS011;10319;52.206;20.996;2023-03-31T16:25:45;3.97;;;1.27;;
20322;SDS011;10319;52.206;20.996;2023-03-31T16:28:14;7.13;;;1.23;;
20322;SDS011;10319;52.206;20.996;2023-03-31T16:30:41;6.13;;;1.00;;
20322;SDS011;10319;52.206;20.996;2023-03-31T16:33:07;4.43;;;1.10;;
20322;SDS011;10319;52.206;20.996;2023-03-31T16:35:34;4.77;;;1.00;;
20322;SDS011;10319;52.206;20.996;2023-03-31T16:38:00;3.80;;;0.87;;
20322;SDS011;10319;52.206;20.996;2023-03-31T16:40:27;3.17;;;0.80;;
20322;SDS011;10319;52.206;20.996;2023-03-31T16:43:05;3.87;;;1.10;;
20322;SDS011;10319;52.206;20.996;2023-03-31T16:45:31;4.43;;;0.97;;
20322;SDS011;10319;52.206;20.996;2023-03-31T16:47:56;5.73;;;1.13;;
20322;SDS011;10319;52.206;20.996;2023-03-31T16:50:21;4.40;;;1.30;;
20322;SDS011;10319;52.206;20.996;2023-03-31T16:52:46;5.93;;;1.00;;
20322;SDS011;10319;52.206;20.996;2023-03-31T16:55:12;3.70;;;0.97;;
20322;SDS011;10319;52.206;20.996;2023-03-31T16:57:37;4.43;;;1.10;;
20322;SDS011;10319;52.206;20.996;2023-03-31T17:00:02;3.23;;;0.90;;
20322;SDS011;10319;52.206;20.996;2023-03-31T17:02:27;4.70;;;1.20;;
20322;SDS011;10319;52.206;20.996;2023-03-31T17:04:53;3.63;;;0.90;;
20322;SDS011;10319;52.206;20.996;2023-03-31T17:07:18;2.53;;;1.00;;
20322;SDS011;10319;52.206;20.996;2023-03-31T17:09:43;4.73;;;1.13;;
20322;SDS011;10319;52.206;20.996;2023-03-31T17:12:08;4.70;;;1.10;;